Main page
METAR-TAF:

METAR-TAF

Airports :

Santorini National Airport

Santorini, Greece

latitude: 36-24N, longitude: 025-29E, elevation: 38 m

Current weather observation

The report was made 34 minutes ago, at 09:50 UTC
Wind 19 kt from the North/Northwest
Temperature 30°C
Humidity 55%
Pressure 1005 hPa
Visibility 10 km or more
no clouds below 1500 m and no cumulonimbus

METAR: LGSR 180950Z 34019KT CAVOK 30/20 Q1005

Time: 13:24 (10:24 UTC)

Forecast

The report was made 5 hours and 24 minutes ago, at 05:00 UTC
Forecast valid from 18 at 06 UTC to 19 at 06 UTC
Wind 18 kt from the West
Visibility 10 km or more
Few clouds at a height of 3000 ft

TAF: LGSR 180500Z 1806/1906 27018KT 9999 FEW030

Weather observations and forecasts of more than 4000 airports (METAR and TAF reports).

The available stations are represented by yellow and red dots on the map.

Hover mouse over dot to see the name of the station.

Then click to see weather observations and forecasts.

To change the map : click on the green buttons with a black cross to zoom in, on the green button with a dash to zoom out, or on the green arrows for adjacent maps.


METAR-TAF: